createdAt,value
2022-09-09T04:38:51.370Z,71.51
2022-09-09T04:41:20.590Z,71.13
2022-09-09T04:43:51.771Z,71.27
2022-09-09T04:46:23.955Z,71.21
2022-09-09T04:48:53.961Z,71.43
2022-09-09T04:51:23.728Z,70.99
2022-09-09T04:53:55.174Z,71.47
2022-09-09T04:56:23.774Z,71.50
2022-09-09T04:58:54.270Z,71.34
2022-09-09T05:01:25.917Z,71.83
2022-09-09T05:03:56.183Z,71.77
2022-09-09T05:06:25.631Z,71.38
2022-09-09T05:09:00.077Z,71.00
2022-09-09T05:11:33.879Z,71.21
2022-09-09T05:14:06.435Z,71.03
2022-09-09T05:16:35.563Z,71.31
2022-09-09T05:19:04.406Z,70.99
2022-09-09T05:21:43.220Z,70.64
2022-09-09T05:24:12.067Z,70.34
2022-09-09T05:26:40.641Z,69.99
2022-09-09T05:29:09.528Z,69.49
2022-09-09T05:31:38.186Z,69.35
2022-09-09T05:34:10.675Z,68.82
2022-09-09T05:36:38.974Z,68.42
2022-09-09T05:39:07.960Z,68.33
2022-09-09T05:41:37.101Z,68.52
2022-09-09T05:44:06.667Z,68.75
2022-09-09T05:46:39.350Z,68.46
2022-09-09T05:49:08.653Z,67.99
2022-09-09T05:51:37.071Z,67.76
2022-09-09T05:54:09.361Z,67.68
2022-09-09T05:56:40.929Z,67.17
2022-09-09T05:59:09.885Z,67.06
2022-09-09T06:01:41.735Z,66.41
2022-09-09T06:04:13.569Z,66.52
2022-09-09T06:06:43.118Z,66.64
2022-09-09T06:09:17.220Z,66.07
2022-09-09T06:11:46.839Z,65.56
2022-09-09T06:14:15.917Z,65.01
2022-09-09T06:16:47.329Z,64.04
2022-09-09T06:19:27.937Z,63.50
2022-09-09T06:21:58.281Z,63.27
2022-09-09T06:24:26.718Z,63.27
2022-09-09T06:26:55.571Z,62.30
2022-09-09T06:29:27.857Z,62.81
2022-09-09T06:31:56.270Z,61.43
2022-09-09T06:34:26.025Z,60.95
2022-09-09T06:36:59.520Z,61.87
2022-09-09T06:39:32.267Z,61.48
2022-09-09T06:42:01.196Z,61.71
2022-09-09T06:45:23.094Z,61.21
2022-09-09T06:47:57.782Z,61.49
2022-09-09T06:50:26.442Z,60.99
2022-09-09T06:52:54.721Z,60.78
2022-09-09T06:55:23.633Z,60.63
2022-09-09T06:57:53.117Z,60.47
2022-09-09T07:00:24.141Z,60.79
2022-09-09T07:02:52.744Z,60.03
2022-09-09T07:05:22.452Z,60.25
2022-09-09T07:07:51.988Z,59.52
2022-09-09T07:10:21.260Z,59.01
2022-09-09T07:12:54.194Z,58.99
2022-09-09T07:15:24.396Z,58.86
2022-09-09T07:17:54.213Z,57.95
2022-09-09T07:20:22.796Z,57.76
2022-09-09T07:22:55.854Z,57.05
2022-09-09T07:25:24.744Z,56.74
2022-09-09T07:27:53.122Z,56.54
2022-09-09T07:30:27.421Z,55.87
2022-09-09T07:32:58.078Z,55.57
2022-09-09T07:35:27.990Z,55.33
2022-09-09T07:37:56.525Z,55.47
2022-09-09T07:40:26.082Z,55.41
2022-09-09T07:42:54.972Z,55.65
2022-09-09T07:45:23.453Z,55.46
2022-09-09T07:47:52.344Z,55.75
2022-09-09T07:50:20.940Z,55.66
2022-09-09T07:52:49.552Z,55.15
2022-09-09T07:55:17.993Z,55.91
2022-09-09T07:57:46.783Z,56.20
2022-09-09T08:00:16.931Z,56.16
2022-09-09T08:02:47.941Z,56.22
2022-09-09T08:05:17.963Z,55.30
2022-09-09T08:07:46.959Z,55.47
2022-09-09T08:10:17.195Z,55.12
2022-09-09T08:13:01.371Z,54.57
2022-09-09T08:15:35.743Z,54.03
2022-09-09T08:18:05.717Z,53.52
2022-09-09T08:20:34.364Z,52.73
2022-09-09T08:23:04.243Z,52.13
2022-09-09T08:25:32.970Z,52.09
2022-09-09T08:28:01.798Z,51.46
2022-09-09T08:30:31.211Z,49.68
2022-09-09T08:33:01.301Z,49.95
